Time;durP1;ratioP1;P1;durP2;ratioP2;P2;SDS_P1;SDS_P2;PMS_P1;PMS_P2;Temp;Humidity;BMP_temperature;BMP_pressure;BME280_temperature;BME280_humidity;BME280_pressure;Samples;Min_cycle;Max_cycle;Signal;HPM_P1;HPM_P2
2022/06/10 00:00:27;;;;;;;2.50;2.30;;;22.20;51.40;;;;;;5022210;28;21050;-44
2022/06/10 00:02:53;;;;;;;2.27;2.07;;;22.10;51.40;;;;;;5021543;28;20205;-45
2022/06/10 00:05:22;;;;;;;4.10;2.60;;;22.10;51.30;;;;;;5020976;28;20448;-45
2022/06/10 00:07:49;;;;;;;2.43;1.80;;;22.10;51.20;;;;;;5014771;28;20263;-43
2022/06/10 00:10:19;;;;;;;2.83;2.03;;;22.10;51.00;;;;;;5012571;28;20436;-44
2022/06/10 00:12:45;;;;;;;2.40;1.90;;;22.10;51.50;;;;;;5025528;28;20480;-45
2022/06/10 00:15:12;;;;;;;3.30;2.30;;;22.00;51.30;;;;;;5019772;28;20451;-44
2022/06/10 00:17:37;;;;;;;2.20;1.70;;;22.00;51.10;;;;;;5020258;28;20439;-44
2022/06/10 00:20:04;;;;;;;2.20;2.00;;;22.00;51.10;;;;;;5019672;28;20440;-44
2022/06/10 00:22:30;;;;;;;4.50;1.80;;;21.90;50.60;;;;;;5015174;28;20471;-45
2022/06/10 00:24:55;;;;;;;5.10;2.33;;;21.90;50.60;;;;;;5020015;28;20476;-44
2022/06/10 00:27:21;;;;;;;1.83;1.70;;;21.90;50.40;;;;;;5019841;28;20580;-44
2022/06/10 00:29:48;;;;;;;2.00;1.80;;;21.90;50.10;;;;;;5026540;28;20581;-44
2022/06/10 00:32:14;;;;;;;4.93;1.77;;;21.90;50.20;;;;;;5023074;28;20190;-44
2022/06/10 00:34:40;;;;;;;3.03;2.00;;;21.90;50.20;;;;;;5020373;28;20452;-45
2022/06/10 00:37:07;;;;;;;4.60;2.00;;;21.90;50.10;;;;;;5012539;28;20824;-44
2022/06/10 00:39:34;;;;;;;4.23;2.10;;;21.90;50.20;;;;;;5020457;28;20201;-46
2022/06/10 00:42:01;;;;;;;2.20;1.53;;;21.80;49.80;;;;;;5023329;28;20509;-44
2022/06/10 00:44:48;;;;;;;1.90;1.77;;;21.80;50.00;;;;;;5023734;28;20837;-43
2022/06/10 00:47:16;;;;;;;2.10;1.90;;;21.80;49.90;;;;;;5026807;28;20507;-44
2022/06/10 00:49:46;;;;;;;2.70;1.97;;;21.70;50.00;;;;;;5022767;28;20451;-44
2022/06/10 00:52:23;;;;;;;8.33;2.07;;;21.70;50.80;;;;;;5014605;28;20440;-44
2022/06/10 00:54:52;;;;;;;3.33;1.90;;;21.60;50.60;;;;;;5016126;28;20535;-45
2022/06/10 00:57:27;;;;;;;3.10;2.03;;;21.60;50.90;;;;;;5024499;28;20510;-45
2022/06/10 01:00:00;;;;;;;2.17;1.97;;;21.50;51.10;;;;;;5022918;28;20479;-46
2022/06/10 01:02:31;;;;;;;2.77;2.20;;;21.50;50.90;;;;;;5014938;28;20833;-43
2022/06/10 01:04:58;;;;;;;3.13;1.97;;;21.50;50.80;;;;;;5020863;28;20452;-43
2022/06/10 01:07:29;;;;;;;3.00;2.40;;;21.50;50.90;;;;;;5012209;28;20479;-43
2022/06/10 01:09:55;;;;;;;4.20;2.07;;;21.50;51.40;;;;;;5014320;28;20436;-46
2022/06/10 01:12:23;;;;;;;2.50;2.30;;;21.50;51.50;;;;;;5020368;28;20436;-43
2022/06/10 01:15:10;;;;;;;3.13;2.83;;;21.50;51.30;;;;;;5026556;28;20450;-43
2022/06/10 01:18:13;;;;;;;4.07;2.40;;;21.50;51.30;;;;;;5027006;28;20447;-45
2022/06/10 01:20:43;;;;;;;3.23;2.10;;;21.50;51.20;;;;;;5014900;28;20455;-45
2022/06/10 01:23:33;;;;;;;2.40;2.20;;;21.50;51.20;;;;;;5018433;28;20468;-45
2022/06/10 01:26:13;;;;;;;2.50;2.10;;;21.40;51.20;;;;;;5015620;28;20471;-44
2022/06/10 01:29:00;;;;;;;3.90;2.40;;;21.30;51.50;;;;;;5021254;28;20443;-45
2022/06/10 01:31:39;;;;;;;4.77;2.40;;;21.30;51.70;;;;;;5029037;28;20440;-43
2022/06/10 01:34:26;;;;;;;2.23;2.13;;;21.20;51.90;;;;;;5026985;28;20435;-45
2022/06/10 01:37:13;;;;;;;2.67;2.23;;;21.20;51.80;;;;;;5016537;28;20451;-44
2022/06/10 01:40:10;;;;;;;4.13;2.20;;;21.10;51.90;;;;;;5023644;28;20503;-45
2022/06/10 01:42:57;;;;;;;4.20;2.20;;;21.10;52.30;;;;;;5020265;28;20475;-44
2022/06/10 01:45:46;;;;;;;5.23;2.60;;;21.00;52.30;;;;;;5017657;28;20447;-43
2022/06/10 01:48:30;;;;;;;4.10;2.13;;;20.90;52.10;;;;;;5035214;28;20449;-43
2022/06/10 01:51:10;;;;;;;4.20;2.30;;;20.80;52.00;;;;;;5024063;28;20475;-44
2022/06/10 01:53:43;;;;;;;2.70;2.10;;;20.70;52.10;;;;;;5021574;28;20459;-43
2022/06/10 01:56:18;;;;;;;4.60;2.60;;;20.60;52.30;;;;;;5026584;28;21447;-43
2022/06/10 01:58:49;;;;;;;8.50;2.20;;;20.60;52.60;;;;;;5025162;28;20447;-44
2022/06/10 02:01:22;;;;;;;3.30;2.50;;;20.50;52.80;;;;;;5016651;28;20525;-44
2022/06/10 02:03:56;;;;;;;2.30;2.10;;;20.50;53.60;;;;;;5016009;28;20502;-43
2022/06/10 02:06:32;;;;;;;3.93;2.30;;;20.40;53.90;;;;;;5028485;28;20562;-43
2022/06/10 02:09:04;;;;;;;3.73;2.70;;;20.50;54.00;;;;;;5026086;28;20432;-44
2022/06/10 02:11:33;;;;;;;2.50;2.10;;;20.50;53.50;;;;;;5017209;28;20443;-43
2022/06/10 02:14:10;;;;;;;2.40;2.10;;;20.60;53.30;;;;;;5029596;28;20963;-43
2022/06/10 02:16:39;;;;;;;3.13;2.50;;;20.60;53.30;;;;;;5032760;28;20451;-43
2022/06/10 02:19:09;;;;;;;2.70;2.50;;;20.70;53.00;;;;;;5021925;28;20444;-45
2022/06/10 02:21:38;;;;;;;2.60;2.40;;;20.60;53.70;;;;;;5027084;28;20444;-44
2022/06/10 02:24:17;;;;;;;2.80;2.30;;;20.50;53.90;;;;;;5020887;28;20490;-44
2022/06/10 02:26:45;;;;;;;5.87;2.43;;;20.50;53.90;;;;;;5015558;28;20499;-44
2022/06/10 02:29:21;;;;;;;2.40;2.20;;;20.60;53.30;;;;;;5018628;28;20931;-44
2022/06/10 02:31:55;;;;;;;3.20;2.20;;;20.70;52.80;;;;;;5019185;28;20818;-46
2022/06/10 02:34:21;;;;;;;2.87;2.07;;;20.60;53.20;;;;;;5024406;28;20514;-45
2022/06/10 02:37:03;;;;;;;3.23;2.33;;;20.50;53.70;;;;;;5024713;28;20445;-45
2022/06/10 02:39:39;;;;;;;3.77;2.53;;;20.40;53.80;;;;;;5015361;28;20504;-44
2022/06/10 02:42:25;;;;;;;4.10;2.60;;;20.40;54.00;;;;;;5022709;28;20490;-43
2022/06/10 02:45:25;;;;;;;2.90;2.50;;;20.40;53.80;;;;;;5025151;28;20458;-43
2022/06/10 02:48:03;;;;;;;2.73;2.50;;;20.50;53.70;;;;;;5024086;28;20496;-46
2022/06/10 02:50:28;;;;;;;2.70;2.27;;;20.30;53.80;;;;;;5028112;28;20435;-44
2022/06/10 02:52:55;;;;;;;4.00;3.00;;;20.30;53.90;;;;;;5023651;28;20436;-44
2022/06/10 02:55:23;;;;;;;2.40;2.20;;;20.10;54.20;;;;;;5031943;28;20656;-43
2022/06/10 03:01:20;;;;;;;2.63;2.33;;;20.20;54.40;;;;;;5017058;28;21013;-44
2022/06/10 03:04:00;;;;;;;3.50;2.47;;;20.20;54.30;;;;;;5021171;28;20429;-44
2022/06/10 03:06:46;;;;;;;2.93;2.63;;;20.10;54.20;;;;;;5012911;28;20544;-43
2022/06/10 03:09:20;;;;;;;6.17;2.30;;;20.10;54.40;;;;;;5019666;28;20462;-44
2022/06/10 03:12:08;;;;;;;3.63;2.20;;;20.00;54.70;;;;;;5029336;28;20454;-43
2022/06/10 03:15:00;;;;;;;3.67;2.30;;;19.90;54.80;;;;;;5025213;28;20535;-44
2022/06/10 03:17:35;;;;;;;3.93;2.33;;;19.90;54.70;;;;;;5018500;28;20502;-44
2022/06/10 03:20:11;;;;;;;3.20;2.07;;;19.80;54.60;;;;;;5021487;28;21949;-43
2022/06/10 03:22:58;;;;;;;3.93;2.37;;;19.40;55.30;;;;;;5021799;28;20516;-43
2022/06/10 03:25:41;;;;;;;5.07;2.37;;;19.10;56.80;;;;;;5025835;28;20877;-43
2022/06/10 03:28:14;;;;;;;2.47;2.23;;;19.30;56.40;;;;;;5028899;28;20491;-43
2022/06/10 03:30:51;;;;;;;2.57;2.33;;;19.30;55.70;;;;;;5025773;28;20448;-44
2022/06/10 03:33:32;;;;;;;2.70;2.03;;;19.30;56.30;;;;;;5019964;28;20562;-45
2022/06/10 03:36:11;;;;;;;3.20;2.70;;;19.50;55.90;;;;;;5030673;28;20986;-43
2022/06/10 03:38:47;;;;;;;2.63;2.20;;;19.60;55.80;;;;;;5016577;28;20459;-47
2022/06/10 03:41:27;;;;;;;2.40;1.80;;;19.70;55.40;;;;;;5018237;28;21007;-46
2022/06/10 03:43:55;;;;;;;2.60;2.40;;;19.50;55.20;;;;;;5022337;28;20958;-44
2022/06/10 03:46:23;;;;;;;3.47;2.07;;;19.60;55.70;;;;;;5020829;28;20471;-45
2022/06/10 03:48:50;;;;;;;4.30;2.73;;;19.80;55.30;;;;;;5018932;28;21235;-45
2022/06/10 03:51:17;;;;;;;3.97;2.60;;;19.80;54.70;;;;;;5011706;28;20447;-44
2022/06/10 03:53:44;;;;;;;7.10;3.27;;;19.90;54.30;;;;;;5017455;28;20544;-44
2022/06/10 03:56:11;;;;;;;3.90;2.37;;;20.00;53.80;;;;;;5018113;28;20432;-43
2022/06/10 03:58:40;;;;;;;2.50;2.30;;;20.10;53.60;;;;;;5028027;28;20471;-45
2022/06/10 04:01:07;;;;;;;3.33;2.47;;;20.20;53.50;;;;;;5028719;28;20478;-43
2022/06/10 04:03:33;;;;;;;3.43;2.60;;;19.90;54.20;;;;;;5022872;28;20450;-46
2022/06/10 04:05:58;;;;;;;2.60;2.40;;;19.70;55.00;;;;;;5021814;28;20986;-43
2022/06/10 04:08:24;;;;;;;2.47;2.27;;;19.70;54.90;;;;;;5018923;28;20192;-47
2022/06/10 04:10:50;;;;;;;4.20;2.57;;;19.80;54.50;;;;;;5024451;28;20197;-44
2022/06/10 04:13:20;;;;;;;3.20;1.80;;;19.80;54.90;;;;;;5021095;28;20198;-48
2022/06/10 04:15:46;;;;;;;2.63;2.40;;;19.80;54.80;;;;;;5012395;28;20201;-44
2022/06/10 04:18:12;;;;;;;3.23;2.30;;;19.90;54.20;;;;;;5024357;28;20435;-47
2022/06/10 04:20:39;;;;;;;2.87;2.67;;;20.00;54.30;;;;;;5029384;28;20444;-46
2022/06/10 04:23:06;;;;;;;2.67;2.47;;;20.00;54.30;;;;;;5016893;28;20444;-43
2022/06/10 04:25:34;;;;;;;2.80;2.60;;;19.90;54.20;;;;;;5013720;28;20496;-45
2022/06/10 04:28:01;;;;;;;5.83;2.97;;;19.90;54.30;;;;;;5023482;28;20506;-43
2022/06/10 04:30:34;;;;;;;5.27;2.50;;;19.80;54.70;;;;;;5020846;28;20854;-43
2022/06/10 04:33:01;;;;;;;4.27;3.00;;;19.70;54.90;;;;;;5024159;28;20445;-47
2022/06/10 04:35:27;;;;;;;3.57;2.33;;;19.70;55.10;;;;;;5020965;28;20931;-48
2022/06/10 04:37:55;;;;;;;2.53;2.20;;;19.70;55.00;;;;;;5021649;28;20937;-46
2022/06/10 04:40:24;;;;;;;3.60;2.80;;;19.60;55.30;;;;;;5011882;28;20432;-44
2022/06/10 04:42:50;;;;;;;2.30;2.10;;;19.60;55.60;;;;;;5013113;28;20464;-44
2022/06/10 04:45:19;;;;;;;6.10;3.00;;;19.50;55.60;;;;;;5018393;28;20803;-45
2022/06/10 04:47:45;;;;;;;7.40;3.70;;;19.10;56.40;;;;;;5011877;28;20492;-43
2022/06/10 04:50:11;;;;;;;7.57;5.50;;;18.90;56.90;;;;;;5019262;28;20481;-43
2022/06/10 04:52:37;;;;;;;6.93;5.07;;;18.90;57.20;;;;;;5012571;28;20194;-44
2022/06/10 04:55:05;;;;;;;7.67;4.60;;;19.10;57.00;;;;;;5024135;28;20448;-43
2022/06/10 04:57:31;;;;;;;5.80;4.23;;;19.20;56.90;;;;;;5012924;28;20596;-44
2022/06/10 04:59:57;;;;;;;5.40;4.07;;;18.40;57.70;;;;;;5018087;28;21051;-45
2022/06/10 05:02:23;;;;;;;6.17;4.13;;;18.00;58.90;;;;;;5018065;28;20523;-44
2022/06/10 05:04:48;;;;;;;4.33;3.23;;;17.70;61.00;;;;;;5023217;28;20205;-43
2022/06/10 05:07:15;;;;;;;5.30;3.30;;;17.90;61.00;;;;;;5023855;28;20225;-43
2022/06/10 05:09:40;;;;;;;4.93;2.93;;;18.20;60.00;;;;;;5021838;28;20231;-44
2022/06/10 05:12:07;;;;;;;4.57;3.20;;;18.20;59.70;;;;;;5018283;28;21003;-48
2022/06/10 05:14:34;;;;;;;3.67;3.10;;;18.50;59.50;;;;;;5023755;28;20692;-43
2022/06/10 05:17:00;;;;;;;2.60;2.40;;;18.80;59.00;;;;;;5026291;28;20470;-46
2022/06/10 05:19:26;;;;;;;7.07;2.50;;;18.80;58.60;;;;;;5018166;28;20536;-43
2022/06/10 05:21:51;;;;;;;2.37;2.20;;;18.50;58.80;;;;;;5017903;28;20452;-43
2022/06/10 05:24:17;;;;;;;5.97;2.67;;;18.60;59.20;;;;;;5027084;28;20199;-45
2022/06/10 05:26:43;;;;;;;2.30;2.13;;;18.90;58.60;;;;;;5029830;28;20221;-43
2022/06/10 05:29:08;;;;;;;5.63;2.93;;;19.10;58.10;;;;;;5020671;28;20229;-45
2022/06/10 05:31:34;;;;;;;4.63;2.70;;;19.40;57.40;;;;;;5017786;28;20276;-43
2022/06/10 05:36:44;;;;;;;2.43;2.23;;;19.00;57.70;;;;;;5020231;28;20667;-46
2022/06/10 05:39:10;;;;;;;4.20;3.10;;;18.90;58.20;;;;;;5021694;28;20440;-44
2022/06/10 05:44:20;;;;;;;8.10;2.90;;;19.60;57.40;;;;;;5012760;28;20260;-44
2022/06/10 05:46:46;;;;;;;2.80;2.10;;;19.80;57.20;;;;;;5018362;28;20491;-44
2022/06/10 05:49:11;;;;;;;4.37;2.40;;;20.20;57.00;;;;;;5026255;28;20197;-45
2022/06/10 05:51:37;;;;;;;8.95;2.38;;;20.60;55.90;;;;;;5020542;28;20425;-44
2022/06/10 05:54:04;;;;;;;2.80;2.60;;;20.90;55.00;;;;;;5023723;28;20196;-43
2022/06/10 05:56:29;;;;;;;2.30;2.10;;;21.20;54.00;;;;;;5017248;28;20224;-44
2022/06/10 05:58:55;;;;;;;3.37;2.60;;;21.40;53.30;;;;;;5016084;28;20444;-46
2022/06/10 06:01:21;;;;;;;4.50;1.93;;;21.50;52.70;;;;;;5020856;28;20233;-44
2022/06/10 06:03:47;;;;;;;4.57;2.77;;;21.70;52.40;;;;;;5016930;28;20197;-45
2022/06/10 06:06:13;;;;;;;5.93;2.47;;;21.80;51.90;;;;;;5010061;28;20223;-44
2022/06/10 06:08:42;;;;;;;2.10;1.93;;;22.00;51.80;;;;;;5021701;28;20965;-47
2022/06/10 06:11:09;;;;;;;4.87;2.00;;;22.00;51.80;;;;;;5020872;28;20193;-48
2022/06/10 06:13:34;;;;;;;4.17;2.40;;;22.00;51.50;;;;;;5023148;28;20491;-43
2022/06/10 06:16:00;;;;;;;3.00;2.17;;;22.10;51.30;;;;;;5019406;28;20955;-43
2022/06/10 06:18:26;;;;;;;2.77;2.53;;;22.20;51.10;;;;;;5028834;28;20204;-45
2022/06/10 06:20:51;;;;;;;3.00;2.10;;;22.20;51.10;;;;;;5031114;28;20691;-44
2022/06/10 06:23:17;;;;;;;5.63;2.20;;;22.30;50.80;;;;;;5028152;28;20444;-43
2022/06/10 06:25:44;;;;;;;2.07;1.87;;;22.10;50.80;;;;;;5027581;28;20573;-45
2022/06/10 06:28:10;;;;;;;3.40;2.17;;;22.20;51.00;;;;;;5032370;28;20241;-44
2022/06/10 06:30:37;;;;;;;7.10;2.57;;;22.30;50.70;;;;;;5023950;28;21011;-45
2022/06/10 06:33:05;;;;;;;2.57;2.20;;;22.40;50.40;;;;;;5026698;28;20276;-43
2022/06/10 06:35:33;;;;;;;3.03;2.00;;;22.50;50.30;;;;;;5026577;28;20440;-44
2022/06/10 06:37:59;;;;;;;6.67;2.50;;;22.60;50.10;;;;;;5026002;28;20493;-43
2022/06/10 06:40:25;;;;;;;5.33;2.17;;;22.70;49.90;;;;;;5027739;28;20439;-43
2022/06/10 06:42:51;;;;;;;5.30;2.50;;;22.80;49.60;;;;;;5019813;28;20280;-48
2022/06/10 06:45:18;;;;;;;10.43;2.30;;;22.80;49.50;;;;;;5029329;28;20950;-43
2022/06/10 06:47:44;;;;;;;3.70;2.50;;;22.90;49.40;;;;;;5029512;28;20534;-44
2022/06/10 06:50:13;;;;;;;2.80;2.03;;;22.90;49.50;;;;;;5030305;28;20448;-46
2022/06/10 06:52:40;;;;;;;4.63;2.40;;;22.90;49.70;;;;;;5025201;28;20237;-43
2022/06/10 06:55:06;;;;;;;4.37;2.20;;;22.90;49.90;;;;;;5026719;28;20505;-43
2022/06/10 06:57:31;;;;;;;7.03;2.30;;;22.90;49.40;;;;;;5031699;28;20432;-44
2022/06/10 07:00:05;;;;;;;3.13;2.20;;;23.00;49.10;;;;;;5030397;28;20900;-45
2022/06/10 07:02:31;;;;;;;4.60;2.07;;;23.10;49.00;;;;;;5029279;28;20207;-44
2022/06/10 07:04:56;;;;;;;3.27;1.90;;;23.10;48.80;;;;;;5029614;28;20459;-44
2022/06/10 07:07:22;;;;;;;4.73;2.50;;;23.10;48.50;;;;;;5030001;28;20229;-44
2022/06/10 07:09:47;;;;;;;2.80;2.20;;;23.20;48.60;;;;;;5031936;28;20557;-43
2022/06/10 07:12:13;;;;;;;4.00;2.40;;;23.20;48.70;;;;;;5029746;28;20646;-43
2022/06/10 07:14:39;;;;;;;9.63;2.17;;;23.30;48.90;;;;;;5032329;28;20197;-44
2022/06/10 07:17:05;;;;;;;4.33;2.43;;;23.30;48.70;;;;;;5017470;28;20305;-43
2022/06/10 07:19:31;;;;;;;2.83;2.20;;;23.40;48.40;;;;;;5015506;28;20212;-43
2022/06/10 07:21:57;;;;;;;4.20;1.90;;;23.50;48.80;;;;;;5031438;28;20788;-44
2022/06/10 07:24:22;;;;;;;6.63;2.50;;;23.60;49.00;;;;;;5022857;28;20444;-44
2022/06/10 07:26:48;;;;;;;3.00;1.90;;;23.60;49.30;;;;;;5030648;28;20630;-44
2022/06/10 07:29:14;;;;;;;5.07;3.07;;;23.70;49.00;;;;;;5030094;28;20557;-44
2022/06/10 07:31:41;;;;;;;2.97;2.10;;;23.90;49.20;;;;;;5027619;28;20225;-44
2022/06/10 07:34:08;;;;;;;3.80;2.83;;;24.00;49.20;;;;;;5031209;28;20436;-43
2022/06/10 07:36:34;;;;;;;4.40;2.10;;;24.10;49.00;;;;;;5021430;28;20528;-43
2022/06/10 07:39:00;;;;;;;2.10;1.83;;;24.20;48.10;;;;;;5029124;28;20471;-43
2022/06/10 07:44:10;;;;;;;3.87;2.40;;;24.50;47.40;;;;;;5030226;28;20204;-43
2022/06/10 07:46:35;;;;;;;4.53;2.30;;;24.70;46.60;;;;;;5028974;28;20571;-43
2022/06/10 07:49:01;;;;;;;4.60;2.17;;;24.80;46.50;;;;;;5031162;28;20200;-43
2022/06/10 07:51:26;;;;;;;4.57;2.10;;;24.80;46.90;;;;;;5025973;28;20597;-44
2022/06/10 07:53:52;;;;;;;3.90;1.90;;;24.90;46.40;;;;;;5023733;28;20221;-45
2022/06/10 07:56:20;;;;;;;3.47;2.00;;;24.90;46.80;;;;;;5019732;28;20193;-45
2022/06/10 07:58:47;;;;;;;4.27;2.20;;;25.10;45.60;;;;;;5014691;28;20198;-46
2022/06/10 08:01:13;;;;;;;3.53;2.43;;;25.10;45.30;;;;;;5022385;28;20499;-46
2022/06/10 08:03:38;;;;;;;2.70;1.90;;;25.20;44.80;;;;;;5029281;28;21239;-46
2022/06/10 08:06:04;;;;;;;4.27;2.53;;;25.40;44.50;;;;;;5018777;28;20193;-44
2022/06/10 08:08:30;;;;;;;3.23;1.90;;;25.40;44.40;;;;;;5017609;28;20251;-45
2022/06/10 08:10:57;;;;;;;3.03;1.83;;;25.40;43.90;;;;;;5009702;28;20444;-46
2022/06/10 08:13:23;;;;;;;2.50;2.00;;;25.40;44.00;;;;;;5027796;28;20440;-44
2022/06/10 08:15:49;;;;;;;3.63;2.10;;;25.50;43.80;;;;;;5009575;28;20453;-44
2022/06/10 08:18:18;;;;;;;3.07;1.77;;;25.50;43.90;;;;;;5012172;28;20541;-46
2022/06/10 08:23:30;;;;;;;5.13;1.90;;;25.70;43.60;;;;;;5014251;28;20484;-44
2022/06/10 08:25:58;;;;;;;1.90;1.80;;;25.70;43.40;;;;;;5025244;28;20479;-45
2022/06/10 08:28:25;;;;;;;3.60;2.00;;;25.80;43.20;;;;;;5027827;28;20492;-45
2022/06/10 08:30:51;;;;;;;4.57;2.20;;;25.90;42.90;;;;;;5018455;28;20441;-45
2022/06/10 08:33:17;;;;;;;2.67;2.47;;;26.00;42.90;;;;;;5015882;28;20455;-45
2022/06/10 08:35:43;;;;;;;3.20;2.20;;;26.10;41.80;;;;;;5020804;28;20276;-44
2022/06/10 08:38:12;;;;;;;3.17;1.90;;;26.10;42.30;;;;;;5022292;28;20452;-44
2022/06/10 08:40:56;;;;;;;2.57;1.93;;;26.20;42.10;;;;;;5025017;28;20462;-44
2022/06/10 08:43:36;;;;;;;4.47;1.83;;;26.20;41.10;;;;;;5018810;28;20455;-45
2022/06/10 08:46:23;;;;;;;3.87;2.10;;;26.40;41.10;;;;;;5022267;28;20492;-43
2022/06/10 08:49:15;;;;;;;3.10;1.87;;;26.50;41.30;;;;;;5012307;28;20461;-45
2022/06/10 08:51:58;;;;;;;3.00;2.30;;;26.60;40.80;;;;;;5017513;28;20456;-44
2022/06/10 08:54:24;;;;;;;3.37;2.00;;;26.60;40.60;;;;;;5021826;28;20535;-43
2022/06/10 08:56:53;;;;;;;2.70;1.97;;;26.40;40.90;;;;;;5012061;28;20468;-43
2022/06/10 08:59:45;;;;;;;5.47;2.23;;;26.30;40.30;;;;;;5018673;28;20479;-46
2022/06/10 09:02:32;;;;;;;4.03;2.00;;;26.40;41.00;;;;;;5016844;28;21184;-44
2022/06/10 09:05:23;;;;;;;3.80;2.53;;;26.90;40.60;;;;;;5014192;28;20456;-45
2022/06/10 09:07:53;;;;;;;5.00;2.00;;;27.10;40.50;;;;;;5023073;28;20488;-45
2022/06/10 09:10:57;;;;;;;4.67;2.07;;;27.30;40.00;;;;;;5028171;28;20962;-44
2022/06/10 09:13:35;;;;;;;4.20;2.00;;;27.40;39.70;;;;;;5019954;28;20448;-46
2022/06/10 09:16:19;;;;;;;3.77;2.20;;;27.50;39.10;;;;;;5017357;28;20480;-47
2022/06/10 09:18:51;;;;;;;4.67;2.40;;;27.60;39.50;;;;;;5019318;28;20475;-44
2022/06/10 09:21:34;;;;;;;2.20;1.80;;;27.70;39.40;;;;;;5024113;28;21101;-45
2022/06/10 09:24:07;;;;;;;2.80;1.73;;;27.90;38.20;;;;;;5023910;28;20799;-44
2022/06/10 09:26:42;;;;;;;2.70;2.30;;;27.90;37.70;;;;;;5021317;28;20484;-44
2022/06/10 09:29:09;;;;;;;7.73;2.10;;;27.80;37.80;;;;;;5015140;28;20475;-44
2022/06/10 09:31:49;;;;;;;8.10;2.07;;;27.90;38.10;;;;;;5024623;28;20809;-44
2022/06/10 09:35:00;;;;;;;2.80;1.60;;;28.00;38.80;;;;;;5024901;28;20458;-44
2022/06/10 09:37:52;;;;;;;6.23;3.47;;;28.00;38.60;;;;;;5018608;28;20454;-44
2022/06/10 09:40:37;;;;;;;4.80;2.30;;;28.20;37.60;;;;;;5026045;28;20542;-45
2022/06/10 09:43:56;;;;;;;3.20;2.30;;;28.30;37.10;;;;;;5026299;28;20462;-43
2022/06/10 09:46:27;;;;;;;6.47;2.20;;;28.40;37.10;;;;;;4975434;28;20527;-43
2022/06/10 09:49:19;;;;;;;4.50;1.90;;;28.70;36.60;;;;;;4979430;28;20536;-45
2022/06/10 09:51:58;;;;;;;4.43;2.50;;;28.80;35.30;;;;;;5010758;28;20490;-44
2022/06/10 09:54:41;;;;;;;5.13;2.10;;;28.80;35.20;;;;;;5030716;28;21097;-44
2022/06/10 09:57:31;;;;;;;3.87;2.20;;;28.90;35.70;;;;;;5021736;28;20480;-48
2022/06/10 10:00:18;;;;;;;3.27;1.80;;;29.20;35.70;;;;;;5030177;28;20490;-45
2022/06/10 10:03:02;;;;;;;4.70;2.30;;;29.30;35.30;;;;;;5025588;28;20456;-44
2022/06/10 10:05:33;;;;;;;4.57;2.00;;;29.30;35.30;;;;;;5029160;28;21011;-44
2022/06/10 10:08:29;;;;;;;3.57;2.00;;;29.50;34.70;;;;;;5024937;28;20537;-45
2022/06/10 10:11:09;;;;;;;3.00;1.70;;;29.70;34.70;;;;;;5020060;28;20444;-44
2022/06/10 10:14:21;;;;;;;5.30;2.93;;;29.90;35.00;;;;;;5026738;28;20448;-45
2022/06/10 10:17:01;;;;;;;3.40;2.10;;;30.10;34.20;;;;;;5025289;28;20455;-44
2022/06/10 10:19:54;;;;;;;1.97;1.80;;;30.30;33.90;;;;;;5031184;28;20482;-44
2022/06/10 10:22:35;;;;;;;3.17;1.83;;;30.20;32.60;;;;;;5025529;28;20479;-44
2022/06/10 10:25:01;;;;;;;3.70;1.40;;;30.50;32.70;;;;;;5029012;28;20442;-44
2022/06/10 10:27:33;;;;;;;3.73;1.67;;;30.70;32.20;;;;;;5023955;28;20972;-46
2022/06/10 10:30:13;;;;;;;4.63;1.60;;;30.90;31.30;;;;;;5027241;28;20197;-45
2022/06/10 10:32:45;;;;;;;3.00;1.70;;;31.00;29.60;;;;;;5018094;28;20444;-44
2022/06/10 10:35:27;;;;;;;3.93;2.07;;;31.00;29.80;;;;;;5030167;28;21129;-44
2022/06/10 10:38:06;;;;;;;2.53;2.10;;;31.00;29.80;;;;;;5024704;28;20461;-44
2022/06/10 10:40:46;;;;;;;4.17;1.60;;;31.10;29.80;;;;;;5024510;28;20505;-46
2022/06/10 10:43:18;;;;;;;3.70;2.20;;;31.20;30.00;;;;;;5024263;28;21280;-45
2022/06/10 10:46:28;;;;;;;8.17;1.60;;;31.30;29.70;;;;;;5022000;28;20452;-46
2022/06/10 10:48:57;;;;;;;3.47;1.60;;;31.30;30.00;;;;;;5026418;28;20522;-45
2022/06/10 10:51:31;;;;;;;2.47;1.70;;;31.30;29.80;;;;;;5026963;28;20494;-44
2022/06/10 10:54:19;;;;;;;2.87;1.73;;;31.30;29.70;;;;;;5026864;28;20456;-45
2022/06/10 10:56:49;;;;;;;5.70;1.50;;;31.30;29.60;;;;;;5031344;28;20436;-45
2022/06/10 10:59:33;;;;;;;4.00;2.07;;;31.20;29.60;;;;;;5024688;28;20447;-45
2022/06/10 11:01:58;;;;;;;3.50;1.80;;;31.30;29.60;;;;;;5017100;28;20484;-44
2022/06/10 11:04:38;;;;;;;2.00;1.80;;;31.00;29.70;;;;;;5022944;28;20448;-43
2022/06/10 11:07:12;;;;;;;3.90;2.03;;;30.90;30.00;;;;;;5029616;28;20824;-44
2022/06/10 11:09:45;;;;;;;3.03;1.80;;;31.20;30.40;;;;;;5028663;28;20856;-45
2022/06/10 11:12:18;;;;;;;2.83;1.80;;;31.50;30.00;;;;;;5025063;28;22480;-43
2022/06/10 11:14:47;;;;;;;5.23;2.00;;;31.50;30.50;;;;;;5022574;28;20482;-44
2022/06/10 11:17:15;;;;;;;2.30;1.80;;;31.60;30.50;;;;;;5022768;28;20444;-44
2022/06/10 11:19:52;;;;;;;3.60;1.90;;;31.60;29.30;;;;;;5014558;28;21065;-44
2022/06/10 11:22:32;;;;;;;5.07;2.20;;;31.60;29.80;;;;;;5016132;28;20490;-44
2022/06/10 11:25:03;;;;;;;7.13;1.63;;;31.90;29.90;;;;;;5021894;28;20492;-44
2022/06/10 11:27:35;;;;;;;4.13;1.97;;;32.20;29.50;;;;;;5014514;28;21900;-46
2022/06/10 11:30:16;;;;;;;4.30;1.73;;;32.30;28.40;;;;;;5023383;28;20449;-44
2022/06/10 11:33:03;;;;;;;3.77;1.90;;;32.40;28.00;;;;;;5023755;28;20444;-44
2022/06/10 11:35:28;;;;;;;4.60;1.90;;;31.90;28.70;;;;;;5016806;28;20456;-44
2022/06/10 11:38:21;;;;;;;5.53;1.70;;;32.00;28.90;;;;;;5025235;28;20454;-44
2022/06/10 11:40:46;;;;;;;2.93;1.70;;;32.30;28.70;;;;;;5020243;28;20197;-45
2022/06/10 11:43:38;;;;;;;2.60;1.77;;;32.30;28.50;;;;;;5020036;28;20940;-44
2022/06/10 11:46:36;;;;;;;2.10;1.80;;;32.50;28.90;;;;;;5015621;28;20277;-44
2022/06/10 11:49:22;;;;;;;3.17;1.43;;;32.50;28.00;;;;;;5016078;28;20507;-45
2022/06/10 11:52:13;;;;;;;5.27;1.77;;;32.30;28.30;;;;;;5015365;28;20514;-45
2022/06/10 11:55:03;;;;;;;4.43;1.90;;;32.30;28.50;;;;;;5022726;28;20531;-44
2022/06/10 12:00:49;;;;;;;3.17;1.80;;;32.20;28.70;;;;;;5024322;28;20475;-44
2022/06/10 12:03:30;;;;;;;3.13;1.93;;;32.20;28.00;;;;;;5016373;28;20448;-43
2022/06/10 12:06:34;;;;;;;6.03;2.17;;;32.40;28.80;;;;;;5019930;28;20959;-44
2022/06/10 12:09:15;;;;;;;2.23;2.03;;;32.70;28.30;;;;;;5014555;28;20460;-44
2022/06/10 12:11:59;;;;;;;2.83;2.00;;;32.50;27.60;;;;;;5016544;28;21008;-43
2022/06/10 12:14:37;;;;;;;1.73;1.63;;;32.70;27.50;;;;;;5024176;28;20459;-44
2022/06/10 12:17:10;;;;;;;4.40;1.37;;;32.80;27.00;;;;;;5012563;28;20487;-44
2022/06/10 12:20:04;;;;;;;4.87;1.70;;;32.60;27.80;;;;;;5015936;28;20903;-45
2022/06/10 12:22:31;;;;;;;2.80;1.30;;;33.00;27.50;;;;;;5009835;28;20468;-46
2022/06/10 12:24:58;;;;;;;5.13;2.00;;;33.10;26.60;;;;;;5017747;28;20448;-43
2022/06/10 12:27:39;;;;;;;3.60;1.57;;;33.10;26.30;;;;;;5018444;28;20888;-44
2022/06/10 12:30:15;;;;;;;5.87;2.07;;;33.40;27.10;;;;;;5027293;28;20919;-44
2022/06/10 12:32:43;;;;;;;2.90;1.90;;;33.40;26.80;;;;;;5013669;28;20872;-44
2022/06/10 12:35:23;;;;;;;3.63;1.40;;;33.40;26.50;;;;;;5016756;28;20448;-46
2022/06/10 12:37:55;;;;;;;2.13;1.30;;;32.70;26.20;;;;;;5020534;28;20511;-44
2022/06/10 12:40:33;;;;;;;2.60;1.63;;;32.70;27.10;;;;;;5014984;28;20437;-44
2022/06/10 12:43:18;;;;;;;1.90;1.70;;;33.10;26.80;;;;;;5019227;28;20793;-47
2022/06/10 12:46:05;;;;;;;3.40;2.17;;;33.50;27.70;;;;;;5020903;28;20448;-47
2022/06/10 12:48:46;;;;;;;1.77;1.67;;;33.80;26.80;;;;;;5022901;28;20531;-45
2022/06/10 12:51:12;;;;;;;2.70;1.90;;;34.00;26.00;;;;;;5023677;28;20499;-46
2022/06/10 12:53:43;;;;;;;2.77;1.70;;;34.10;25.80;;;;;;5019741;28;20452;-44
2022/06/10 12:56:22;;;;;;;2.77;1.53;;;34.30;26.20;;;;;;5023580;28;20258;-45
2022/06/10 12:59:06;;;;;;;5.00;1.80;;;34.20;25.90;;;;;;5017152;28;20505;-43
2022/06/10 13:01:32;;;;;;;1.60;1.50;;;33.90;26.00;;;;;;5014813;28;20528;-44
2022/06/10 13:04:15;;;;;;;6.10;2.13;;;33.90;25.70;;;;;;5021417;28;20448;-44
2022/06/10 13:06:43;;;;;;;3.33;1.60;;;34.10;25.70;;;;;;5018146;28;20225;-44
2022/06/10 13:09:12;;;;;;;1.70;1.43;;;34.30;25.60;;;;;;5013743;28;20480;-43
2022/06/10 13:12:13;;;;;;;1.83;1.73;;;34.40;25.80;;;;;;5009357;28;20440;-43
2022/06/10 13:15:00;;;;;;;2.53;1.60;;;34.40;25.70;;;;;;5007350;28;20491;-45
2022/06/10 13:17:27;;;;;;;4.67;1.70;;;34.10;25.90;;;;;;5024196;28;20498;-43
2022/06/10 13:19:53;;;;;;;2.03;1.73;;;33.50;26.10;;;;;;5020351;28;20444;-45
2022/06/10 13:22:18;;;;;;;2.33;1.70;;;33.80;26.20;;;;;;5019882;28;20501;-44
2022/06/10 13:25:07;;;;;;;2.73;1.80;;;34.00;26.10;;;;;;5019074;28;20248;-46
2022/06/10 13:27:42;;;;;;;3.10;1.40;;;33.70;26.00;;;;;;5014175;28;20233;-45
2022/06/10 13:30:21;;;;;;;4.10;1.40;;;33.50;26.30;;;;;;5031248;28;20439;-46
2022/06/10 13:33:01;;;;;;;3.00;2.27;;;33.00;26.00;;;;;;5041363;28;20416;-42
2022/06/10 13:35:38;;;;;;;2.73;1.97;;;33.00;26.00;;;;;;5031131;28;20443;-42
2022/06/10 13:38:15;;;;;;;3.10;1.87;;;32.70;26.10;;;;;;5030886;28;20444;-42